EYPA/PLQ METAR and TAF weather

Enter ICAO airport designator
Station Type Date Time Source
EYPA METAR 2018/01/19 22:50 UTC NOAA

EYPA 192250Z AUTO 04002KT 5000 BKN026/// M06/M07 Q1007


Station Type Date Time Source
EYPA Decoded METAR 2018/01/19 22:50 UTC NOAA

Palanga Intl., Lithuania (EYPA) 55-55-12N 021-03E
Jan 19, 2018 - 05:50 PM EST / 2018.01.19 2250 UTC
Wind: from the NE (040 degrees) at 2 MPH (2 KT):0
Visibility: 3 mile(s):0
Sky conditions: mostly cloudy
Temperature: 21 F (-6 C)
Dew Point: 19 F (-7 C)
Relative Humidity: 92%
Pressure (altimeter): 29.74 in. Hg (1007 hPa)
ob: EYPA 192250Z AUTO 04002KT 5000 BKN026/// M06/M07 Q1007
cycle: 23

Station Type Date Time Source
EYPA TAF 2018/01/19 18:25 UTC NOAA

TAF
AMD EYPA 191820Z 1918/2018 VRB05KT 3000 BR BKN005
TEMPO 1918/2008 0250 FZFG VV002
BECMG 2008/2009 9000 SCT015
BECMG 2015/2016 09015KT


Example: see airport list